sensor_id;sensor_type;location;lat;lon;timestamp;temperature;humidity
68865;DHT22;55898;52.196;4.420;2022-07-06T00:01:27;17.86;56.93
68865;DHT22;55898;52.196;4.420;2022-07-06T00:03:52;17.86;57.46
68865;DHT22;55898;52.196;4.420;2022-07-06T00:06:18;17.86;56.78
68865;DHT22;55898;52.196;4.420;2022-07-06T00:08:43;17.85;57.59
68865;DHT22;55898;52.196;4.420;2022-07-06T00:11:09;17.86;58.33
68865;DHT22;55898;52.196;4.420;2022-07-06T00:13:35;17.88;57.93
68865;DHT22;55898;52.196;4.420;2022-07-06T00:16:01;17.89;58.18
68865;DHT22;55898;52.196;4.420;2022-07-06T00:18:27;17.90;58.47
68865;DHT22;55898;52.196;4.420;2022-07-06T00:20:52;17.89;58.39
68865;DHT22;55898;52.196;4.420;2022-07-06T00:23:18;17.89;58.69
68865;DHT22;55898;52.196;4.420;2022-07-06T00:25:44;17.89;58.98
68865;DHT22;55898;52.196;4.420;2022-07-06T00:28:10;17.89;59.03
68865;DHT22;55898;52.196;4.420;2022-07-06T00:30:35;17.92;59.77
68865;DHT22;55898;52.196;4.420;2022-07-06T00:33:01;17.90;59.17
68865;DHT22;55898;52.196;4.420;2022-07-06T00:35:27;17.89;58.66
68865;DHT22;55898;52.196;4.420;2022-07-06T00:37:53;17.83;59.26
68865;DHT22;55898;52.196;4.420;2022-07-06T00:40:19;17.83;58.76
68865;DHT22;55898;52.196;4.420;2022-07-06T00:42:47;17.79;58.31
68865;DHT22;55898;52.196;4.420;2022-07-06T00:45:15;17.77;59.21
68865;DHT22;55898;52.196;4.420;2022-07-06T00:47:41;17.78;59.69
68865;DHT22;55898;52.196;4.420;2022-07-06T00:50:10;17.79;59.20
68865;DHT22;55898;52.196;4.420;2022-07-06T00:55:21;17.82;58.68
68865;DHT22;55898;52.196;4.420;2022-07-06T00:57:48;17.82;59.37
68865;DHT22;55898;52.196;4.420;2022-07-06T01:00:17;17.81;59.75
68865;DHT22;55898;52.196;4.420;2022-07-06T01:02:43;17.82;59.80
68865;DHT22;55898;52.196;4.420;2022-07-06T01:05:11;17.81;60.41
68865;DHT22;55898;52.196;4.420;2022-07-06T01:07:39;17.75;59.10
68865;DHT22;55898;52.196;4.420;2022-07-06T01:10:06;17.71;59.49
68865;DHT22;55898;52.196;4.420;2022-07-06T01:12:34;17.75;59.83
68865;DHT22;55898;52.196;4.420;2022-07-06T01:15:05;17.74;59.39
68865;DHT22;55898;52.196;4.420;2022-07-06T01:17:32;17.75;59.17
68865;DHT22;55898;52.196;4.420;2022-07-06T01:20:04;17.74;59.19
68865;DHT22;55898;52.196;4.420;2022-07-06T01:22:29;17.71;58.70
68865;DHT22;55898;52.196;4.420;2022-07-06T01:24:55;17.74;59.09
68865;DHT22;55898;52.196;4.420;2022-07-06T01:27:20;17.78;59.18
68865;DHT22;55898;52.196;4.420;2022-07-06T01:29:46;17.78;59.10
68865;DHT22;55898;52.196;4.420;2022-07-06T01:32:11;17.78;59.66
68865;DHT22;55898;52.196;4.420;2022-07-06T01:34:37;17.77;59.22
68865;DHT22;55898;52.196;4.420;2022-07-06T01:37:02;17.77;58.92
68865;DHT22;55898;52.196;4.420;2022-07-06T01:39:28;17.77;59.33
68865;DHT22;55898;52.196;4.420;2022-07-06T01:41:53;17.75;58.53
68865;DHT22;55898;52.196;4.420;2022-07-06T01:44:19;17.69;58.59
68865;DHT22;55898;52.196;4.420;2022-07-06T01:46:44;17.71;58.66
68865;DHT22;55898;52.196;4.420;2022-07-06T01:49:10;17.69;58.84
68865;DHT22;55898;52.196;4.420;2022-07-06T01:51:35;17.69;59.65
68865;DHT22;55898;52.196;4.420;2022-07-06T01:54:01;17.67;59.65
68865;DHT22;55898;52.196;4.420;2022-07-06T01:56:26;17.68;60.19
68865;DHT22;55898;52.196;4.420;2022-07-06T01:58:52;17.68;59.70
68865;DHT22;55898;52.196;4.420;2022-07-06T02:01:19;17.69;59.09
68865;DHT22;55898;52.196;4.420;2022-07-06T02:03:45;17.71;59.14
68865;DHT22;55898;52.196;4.420;2022-07-06T02:06:11;17.72;59.02
68865;DHT22;55898;52.196;4.420;2022-07-06T02:08:39;17.74;58.23
68865;DHT22;55898;52.196;4.420;2022-07-06T02:11:06;17.77;58.03
68865;DHT22;55898;52.196;4.420;2022-07-06T02:13:32;17.77;58.30
68865;DHT22;55898;52.196;4.420;2022-07-06T02:15:57;17.77;58.08
68865;DHT22;55898;52.196;4.420;2022-07-06T02:18:23;17.69;57.83
68865;DHT22;55898;52.196;4.420;2022-07-06T02:20:48;17.69;58.29
68865;DHT22;55898;52.196;4.420;2022-07-06T02:23:14;17.67;58.88
68865;DHT22;55898;52.196;4.420;2022-07-06T02:25:40;17.65;58.44
68865;DHT22;55898;52.196;4.420;2022-07-06T02:28:05;17.64;58.53
68865;DHT22;55898;52.196;4.420;2022-07-06T02:30:31;17.65;57.68
68865;DHT22;55898;52.196;4.420;2022-07-06T02:32:56;17.65;58.64
68865;DHT22;55898;52.196;4.420;2022-07-06T02:35:22;17.61;58.22
68865;DHT22;55898;52.196;4.420;2022-07-06T02:37:47;17.55;58.01
68865;DHT22;55898;52.196;4.420;2022-07-06T02:40:13;17.52;57.47
68865;DHT22;55898;52.196;4.420;2022-07-06T02:42:38;17.51;58.41
68865;DHT22;55898;52.196;4.420;2022-07-06T02:45:05;17.54;59.37
68865;DHT22;55898;52.196;4.420;2022-07-06T02:47:31;17.54;58.66
68865;DHT22;55898;52.196;4.420;2022-07-06T02:49:57;17.54;57.69
68865;DHT22;55898;52.196;4.420;2022-07-06T02:52:23;17.58;57.67
68865;DHT22;55898;52.196;4.420;2022-07-06T02:54:48;17.58;57.54
68865;DHT22;55898;52.196;4.420;2022-07-06T02:57:15;17.57;57.68
68865;DHT22;55898;52.196;4.420;2022-07-06T02:59:40;17.52;58.61
68865;DHT22;55898;52.196;4.420;2022-07-06T03:02:07;17.48;58.05
68865;DHT22;55898;52.196;4.420;2022-07-06T03:04:33;17.50;56.93
68865;DHT22;55898;52.196;4.420;2022-07-06T03:06:59;17.51;57.27
68865;DHT22;55898;52.196;4.420;2022-07-06T03:09:25;17.51;57.77
68865;DHT22;55898;52.196;4.420;2022-07-06T03:11:51;17.52;58.11
68865;DHT22;55898;52.196;4.420;2022-07-06T03:14:16;17.51;57.80
68865;DHT22;55898;52.196;4.420;2022-07-06T03:16:42;17.50;57.46
68865;DHT22;55898;52.196;4.420;2022-07-06T03:19:07;17.50;56.44
68865;DHT22;55898;52.196;4.420;2022-07-06T03:21:33;17.50;57.15
68865;DHT22;55898;52.196;4.420;2022-07-06T03:23:58;17.54;57.50
68865;DHT22;55898;52.196;4.420;2022-07-06T03:26:24;17.57;56.77
68865;DHT22;55898;52.196;4.420;2022-07-06T03:28:49;17.58;55.89
68865;DHT22;55898;52.196;4.420;2022-07-06T03:31:15;17.55;55.79
68865;DHT22;55898;52.196;4.420;2022-07-06T03:33:40;17.58;56.94
68865;DHT22;55898;52.196;4.420;2022-07-06T03:36:07;17.62;56.72
68865;DHT22;55898;52.196;4.420;2022-07-06T03:38:33;17.67;56.89
68865;DHT22;55898;52.196;4.420;2022-07-06T03:40:59;17.71;57.62
68865;DHT22;55898;52.196;4.420;2022-07-06T03:43:24;17.72;56.86
68865;DHT22;55898;52.196;4.420;2022-07-06T03:45:50;17.74;56.48
68865;DHT22;55898;52.196;4.420;2022-07-06T03:48:15;17.72;57.15
68865;DHT22;55898;52.196;4.420;2022-07-06T03:50:41;17.67;56.29
68865;DHT22;55898;52.196;4.420;2022-07-06T03:53:06;17.69;56.52
68865;DHT22;55898;52.196;4.420;2022-07-06T03:55:32;17.72;57.28
68865;DHT22;55898;52.196;4.420;2022-07-06T03:57:57;17.74;56.38
68865;DHT22;55898;52.196;4.420;2022-07-06T04:00:23;17.77;57.30
68865;DHT22;55898;52.196;4.420;2022-07-06T04:02:48;17.75;55.93
68865;DHT22;55898;52.196;4.420;2022-07-06T04:05:14;17.78;56.18
68865;DHT22;55898;52.196;4.420;2022-07-06T04:07:39;17.82;55.98
68865;DHT22;55898;52.196;4.420;2022-07-06T04:10:05;17.81;56.18
68865;DHT22;55898;52.196;4.420;2022-07-06T04:12:31;17.88;56.55
68865;DHT22;55898;52.196;4.420;2022-07-06T04:14:57;17.88;56.53
68865;DHT22;55898;52.196;4.420;2022-07-06T04:17:23;17.93;56.82
68865;DHT22;55898;52.196;4.420;2022-07-06T04:20:08;17.89;57.54
68865;DHT22;55898;52.196;4.420;2022-07-06T04:22:37;17.89;56.52
68865;DHT22;55898;52.196;4.420;2022-07-06T04:25:03;17.79;56.90
68865;DHT22;55898;52.196;4.420;2022-07-06T04:27:29;17.78;57.15
68865;DHT22;55898;52.196;4.420;2022-07-06T04:29:54;17.77;57.76
68865;DHT22;55898;52.196;4.420;2022-07-06T04:32:20;17.75;58.54
68865;DHT22;55898;52.196;4.420;2022-07-06T04:34:45;17.75;57.90
68865;DHT22;55898;52.196;4.420;2022-07-06T04:37:11;17.74;58.99
68865;DHT22;55898;52.196;4.420;2022-07-06T04:39:36;17.75;58.45
68865;DHT22;55898;52.196;4.420;2022-07-06T04:42:02;17.75;57.56
68865;DHT22;55898;52.196;4.420;2022-07-06T04:44:27;17.72;57.46
68865;DHT22;55898;52.196;4.420;2022-07-06T04:46:53;17.69;57.45
68865;DHT22;55898;52.196;4.420;2022-07-06T04:49:19;17.65;57.86
68865;DHT22;55898;52.196;4.420;2022-07-06T04:51:45;17.59;58.48
68865;DHT22;55898;52.196;4.420;2022-07-06T04:54:10;17.55;58.59
68865;DHT22;55898;52.196;4.420;2022-07-06T04:56:35;17.48;58.70
68865;DHT22;55898;52.196;4.420;2022-07-06T04:59:01;17.47;59.33
68865;DHT22;55898;52.196;4.420;2022-07-06T05:01:26;17.45;58.47
68865;DHT22;55898;52.196;4.420;2022-07-06T05:03:52;17.50;58.51
68865;DHT22;55898;52.196;4.420;2022-07-06T05:06:17;17.50;57.95
68865;DHT22;55898;52.196;4.420;2022-07-06T05:08:45;17.54;59.51
68865;DHT22;55898;52.196;4.420;2022-07-06T05:11:11;17.52;58.76
68865;DHT22;55898;52.196;4.420;2022-07-06T05:13:36;17.55;58.37
68865;DHT22;55898;52.196;4.420;2022-07-06T05:16:02;17.50;58.01
68865;DHT22;55898;52.196;4.420;2022-07-06T05:18:27;17.51;58.09
68865;DHT22;55898;52.196;4.420;2022-07-06T05:20:53;17.50;58.78
68865;DHT22;55898;52.196;4.420;2022-07-06T05:23:18;17.52;58.28
68865;DHT22;55898;52.196;4.420;2022-07-06T05:25:44;17.54;59.05
68865;DHT22;55898;52.196;4.420;2022-07-06T05:28:09;17.58;59.66
68865;DHT22;55898;52.196;4.420;2022-07-06T05:30:35;17.67;58.84
68865;DHT22;55898;52.196;4.420;2022-07-06T05:33:00;17.68;58.66
68865;DHT22;55898;52.196;4.420;2022-07-06T05:35:26;17.65;56.94
68865;DHT22;55898;52.196;4.420;2022-07-06T05:37:51;17.68;57.26
68865;DHT22;55898;52.196;4.420;2022-07-06T05:40:17;17.71;57.25
68865;DHT22;55898;52.196;4.420;2022-07-06T05:42:42;17.68;58.65
68865;DHT22;55898;52.196;4.420;2022-07-06T05:45:08;17.72;58.76
68865;DHT22;55898;52.196;4.420;2022-07-06T05:47:33;17.78;58.54
68865;DHT22;55898;52.196;4.420;2022-07-06T05:50:17;17.79;57.48
68865;DHT22;55898;52.196;4.420;2022-07-06T05:52:51;17.85;57.62
68865;DHT22;55898;52.196;4.420;2022-07-06T05:55:19;17.85;57.15
68865;DHT22;55898;52.196;4.420;2022-07-06T05:57:45;17.88;57.54
68865;DHT22;55898;52.196;4.420;2022-07-06T06:00:11;17.90;57.28
68865;DHT22;55898;52.196;4.420;2022-07-06T06:02:41;17.93;56.23
68865;DHT22;55898;52.196;4.420;2022-07-06T06:05:09;17.95;55.35
68865;DHT22;55898;52.196;4.420;2022-07-06T06:07:35;17.98;53.91
68865;DHT22;55898;52.196;4.420;2022-07-06T06:10:07;18.00;53.95
68865;DHT22;55898;52.196;4.420;2022-07-06T06:12:33;18.06;55.34
68865;DHT22;55898;52.196;4.420;2022-07-06T06:14:58;18.14;55.87
68865;DHT22;55898;52.196;4.420;2022-07-06T06:17:24;18.20;56.05
68865;DHT22;55898;52.196;4.420;2022-07-06T06:19:50;18.27;56.86
68865;DHT22;55898;52.196;4.420;2022-07-06T06:22:15;18.30;56.84
68865;DHT22;55898;52.196;4.420;2022-07-06T06:24:41;18.29;57.03
68865;DHT22;55898;52.196;4.420;2022-07-06T06:27:06;18.34;57.03
68865;DHT22;55898;52.196;4.420;2022-07-06T06:29:32;18.33;56.52
68865;DHT22;55898;52.196;4.420;2022-07-06T06:31:58;18.38;55.83
68865;DHT22;55898;52.196;4.420;2022-07-06T06:34:23;18.40;55.42
68865;DHT22;55898;52.196;4.420;2022-07-06T06:36:49;18.40;53.76
68865;DHT22;55898;52.196;4.420;2022-07-06T06:39:14;18.40;54.64
68865;DHT22;55898;52.196;4.420;2022-07-06T06:41:40;18.43;56.19
68865;DHT22;55898;52.196;4.420;2022-07-06T06:44:05;18.40;56.66
68865;DHT22;55898;52.196;4.420;2022-07-06T06:46:31;18.46;56.20
68865;DHT22;55898;52.196;4.420;2022-07-06T06:48:56;18.48;55.96
68865;DHT22;55898;52.196;4.420;2022-07-06T06:51:22;18.53;56.08
68865;DHT22;55898;52.196;4.420;2022-07-06T06:53:47;18.53;56.47
68865;DHT22;55898;52.196;4.420;2022-07-06T06:56:13;18.58;55.32
68865;DHT22;55898;52.196;4.420;2022-07-06T06:58:38;18.65;55.87
68865;DHT22;55898;52.196;4.420;2022-07-06T07:01:04;18.68;56.10
68865;DHT22;55898;52.196;4.420;2022-07-06T07:03:31;18.69;56.42
68865;DHT22;55898;52.196;4.420;2022-07-06T07:05:57;18.77;55.54
68865;DHT22;55898;52.196;4.420;2022-07-06T07:08:23;18.83;54.77
68865;DHT22;55898;52.196;4.420;2022-07-06T07:10:48;18.85;54.34
68865;DHT22;55898;52.196;4.420;2022-07-06T07:13:14;18.79;53.93
68865;DHT22;55898;52.196;4.420;2022-07-06T07:15:39;18.84;54.22
68865;DHT22;55898;52.196;4.420;2022-07-06T07:18:05;18.87;55.34
68865;DHT22;55898;52.196;4.420;2022-07-06T07:20:30;18.94;53.99
68865;DHT22;55898;52.196;4.420;2022-07-06T07:22:59;18.94;54.50
68865;DHT22;55898;52.196;4.420;2022-07-06T07:25:25;19.04;54.03
68865;DHT22;55898;52.196;4.420;2022-07-06T07:27:51;18.99;54.03
68865;DHT22;55898;52.196;4.420;2022-07-06T07:30:16;19.02;53.57
68865;DHT22;55898;52.196;4.420;2022-07-06T07:32:43;19.04;53.38
68865;DHT22;55898;52.196;4.420;2022-07-06T07:35:09;19.08;52.81
68865;DHT22;55898;52.196;4.420;2022-07-06T07:37:34;19.09;52.38
68865;DHT22;55898;52.196;4.420;2022-07-06T07:40:00;19.12;51.92
68865;DHT22;55898;52.196;4.420;2022-07-06T07:42:26;19.19;51.87
68865;DHT22;55898;52.196;4.420;2022-07-06T07:44:51;19.16;53.07
68865;DHT22;55898;52.196;4.420;2022-07-06T07:47:17;19.16;52.72
68865;DHT22;55898;52.196;4.420;2022-07-06T07:49:42;19.16;53.18
68865;DHT22;55898;52.196;4.420;2022-07-06T07:52:08;19.18;53.43
68865;DHT22;55898;52.196;4.420;2022-07-06T07:54:34;19.25;54.15
68865;DHT22;55898;52.196;4.420;2022-07-06T07:57:00;19.32;53.53
68865;DHT22;55898;52.196;4.420;2022-07-06T07:59:26;19.40;53.81
68865;DHT22;55898;52.196;4.420;2022-07-06T08:01:51;19.53;51.65
68865;DHT22;55898;52.196;4.420;2022-07-06T08:04:17;19.66;51.01
68865;DHT22;55898;52.196;4.420;2022-07-06T08:06:43;19.78;51.78
68865;DHT22;55898;52.196;4.420;2022-07-06T08:09:09;19.95;52.10
68865;DHT22;55898;52.196;4.420;2022-07-06T08:11:35;20.07;51.53
68865;DHT22;55898;52.196;4.420;2022-07-06T08:14:02;20.21;50.45
68865;DHT22;55898;52.196;4.420;2022-07-06T08:16:28;20.25;49.20
68865;DHT22;55898;52.196;4.420;2022-07-06T08:18:54;20.20;48.46
68865;DHT22;55898;52.196;4.420;2022-07-06T08:21:20;20.21;48.53
68865;DHT22;55898;52.196;4.420;2022-07-06T08:23:46;20.29;49.20
68865;DHT22;55898;52.196;4.420;2022-07-06T08:26:11;20.32;49.63
68865;DHT22;55898;52.196;4.420;2022-07-06T08:28:37;20.25;48.66
68865;DHT22;55898;52.196;4.420;2022-07-06T08:31:03;20.25;48.86
68865;DHT22;55898;52.196;4.420;2022-07-06T08:33:28;20.18;49.80
68865;DHT22;55898;52.196;4.420;2022-07-06T08:35:54;20.11;49.14
68865;DHT22;55898;52.196;4.420;2022-07-06T08:38:19;20.11;49.77
68865;DHT22;55898;52.196;4.420;2022-07-06T08:40:47;20.18;50.04
68865;DHT22;55898;52.196;4.420;2022-07-06T08:43:14;20.17;49.92
68865;DHT22;55898;52.196;4.420;2022-07-06T08:45:40;20.25;50.28
68865;DHT22;55898;52.196;4.420;2022-07-06T08:48:10;20.28;49.34
68865;DHT22;55898;52.196;4.420;2022-07-06T08:50:37;20.29;50.09
68865;DHT22;55898;52.196;4.420;2022-07-06T08:53:03;20.41;51.28
68865;DHT22;55898;52.196;4.420;2022-07-06T08:55:29;20.41;50.09
68865;DHT22;55898;52.196;4.420;2022-07-06T08:57:56;20.42;48.51
68865;DHT22;55898;52.196;4.420;2022-07-06T09:00:24;20.42;48.49
68865;DHT22;55898;52.196;4.420;2022-07-06T09:02:51;20.56;50.51
68865;DHT22;55898;52.196;4.420;2022-07-06T09:05:21;20.59;48.77
68865;DHT22;55898;52.196;4.420;2022-07-06T09:07:52;20.51;47.34
68865;DHT22;55898;52.196;4.420;2022-07-06T09:10:20;20.56;49.69
68865;DHT22;55898;52.196;4.420;2022-07-06T09:12:47;20.68;50.65
68865;DHT22;55898;52.196;4.420;2022-07-06T09:15:14;20.70;47.76
68865;DHT22;55898;52.196;4.420;2022-07-06T09:17:42;20.72;48.16
68865;DHT22;55898;52.196;4.420;2022-07-06T09:20:10;20.80;49.00
68865;DHT22;55898;52.196;4.420;2022-07-06T09:22:37;20.84;48.74
68865;DHT22;55898;52.196;4.420;2022-07-06T09:25:04;20.83;46.62
68865;DHT22;55898;52.196;4.420;2022-07-06T09:27:30;20.65;46.17
68865;DHT22;55898;52.196;4.420;2022-07-06T09:29:59;20.76;48.38
68865;DHT22;55898;52.196;4.420;2022-07-06T09:32:25;20.83;48.02
68865;DHT22;55898;52.196;4.420;2022-07-06T09:34:51;20.80;45.91
68865;DHT22;55898;52.196;4.420;2022-07-06T09:37:16;20.80;46.25
68865;DHT22;55898;52.196;4.420;2022-07-06T09:39:43;20.91;48.86
68865;DHT22;55898;52.196;4.420;2022-07-06T09:42:09;21.03;46.46
68865;DHT22;55898;52.196;4.420;2022-07-06T09:44:40;21.07;46.87
68865;DHT22;55898;52.196;4.420;2022-07-06T09:47:10;21.06;46.56
68865;DHT22;55898;52.196;4.420;2022-07-06T09:49:37;21.17;46.77
68865;DHT22;55898;52.196;4.420;2022-07-06T09:52:09;21.21;46.80
68865;DHT22;55898;52.196;4.420;2022-07-06T09:54:36;21.18;43.39
68865;DHT22;55898;52.196;4.420;2022-07-06T09:57:02;21.18;45.79
68865;DHT22;55898;52.196;4.420;2022-07-06T09:59:30;21.03;45.02
68865;DHT22;55898;52.196;4.420;2022-07-06T10:02:14;20.87;44.21
68865;DHT22;55898;52.196;4.420;2022-07-06T10:04:44;20.77;45.41
68865;DHT22;55898;52.196;4.420;2022-07-06T10:07:11;20.82;45.11
68865;DHT22;55898;52.196;4.420;2022-07-06T10:09:37;20.97;46.86
68865;DHT22;55898;52.196;4.420;2022-07-06T10:12:05;21.01;45.86
68865;DHT22;55898;52.196;4.420;2022-07-06T10:14:33;21.03;45.28
68865;DHT22;55898;52.196;4.420;2022-07-06T10:17:01;20.97;43.77
68865;DHT22;55898;52.196;4.420;2022-07-06T10:19:29;20.97;44.29
68865;DHT22;55898;52.196;4.420;2022-07-06T10:21:59;21.03;44.90
68865;DHT22;55898;52.196;4.420;2022-07-06T10:24:27;21.21;44.98
68865;DHT22;55898;52.196;4.420;2022-07-06T10:26:52;21.42;44.64
68865;DHT22;55898;52.196;4.420;2022-07-06T10:29:18;21.72;43.64
68865;DHT22;55898;52.196;4.420;2022-07-06T10:31:46;21.89;44.54
68865;DHT22;55898;52.196;4.420;2022-07-06T10:34:15;22.05;42.39
68865;DHT22;55898;52.196;4.420;2022-07-06T10:36:43;22.24;42.53
68865;DHT22;55898;52.196;4.420;2022-07-06T10:39:11;22.46;42.79
68865;DHT22;55898;52.196;4.420;2022-07-06T10:41:56;22.53;41.25
68865;DHT22;55898;52.196;4.420;2022-07-06T10:44:24;22.60;41.75
68865;DHT22;55898;52.196;4.420;2022-07-06T10:46:56;22.17;41.46
68865;DHT22;55898;52.196;4.420;2022-07-06T10:49:23;21.89;44.19
68865;DHT22;55898;52.196;4.420;2022-07-06T10:51:50;21.54;43.73
68865;DHT22;55898;52.196;4.420;2022-07-06T10:54:18;21.48;45.47
68865;DHT22;55898;52.196;4.420;2022-07-06T10:56:49;21.44;46.26
68865;DHT22;55898;52.196;4.420;2022-07-06T10:59:21;21.41;46.01
68865;DHT22;55898;52.196;4.420;2022-07-06T11:02:12;21.39;44.88
68865;DHT22;55898;52.196;4.420;2022-07-06T11:04:40;21.52;44.44
68865;DHT22;55898;52.196;4.420;2022-07-06T11:07:17;21.62;45.97
68865;DHT22;55898;52.196;4.420;2022-07-06T11:09:55;21.74;44.83
68865;DHT22;55898;52.196;4.420;2022-07-06T11:12:21;21.93;44.29
68865;DHT22;55898;52.196;4.420;2022-07-06T11:14:49;22.10;45.35
68865;DHT22;55898;52.196;4.420;2022-07-06T11:17:15;22.40;43.85
68865;DHT22;55898;52.196;4.420;2022-07-06T11:20:10;22.34;42.33
68865;DHT22;55898;52.196;4.420;2022-07-06T11:22:38;22.58;44.23
68865;DHT22;55898;52.196;4.420;2022-07-06T11:25:05;22.79;44.90
68865;DHT22;55898;52.196;4.420;2022-07-06T11:27:31;23.13;41.70
68865;DHT22;55898;52.196;4.420;2022-07-06T11:29:57;23.46;43.04
68865;DHT22;55898;52.196;4.420;2022-07-06T11:32:25;23.88;39.80
68865;DHT22;55898;52.196;4.420;2022-07-06T11:34:51;24.00;40.53
68865;DHT22;55898;52.196;4.420;2022-07-06T11:37:16;24.26;40.35
68865;DHT22;55898;52.196;4.420;2022-07-06T11:39:45;24.53;39.93
68865;DHT22;55898;52.196;4.420;2022-07-06T11:42:16;24.68;38.78
68865;DHT22;55898;52.196;4.420;2022-07-06T11:44:43;24.68;38.33
68865;DHT22;55898;52.196;4.420;2022-07-06T11:47:10;24.69;37.98
68865;DHT22;55898;52.196;4.420;2022-07-06T11:49:38;24.75;39.22
68865;DHT22;55898;52.196;4.420;2022-07-06T11:52:09;24.91;38.85
68865;DHT22;55898;52.196;4.420;2022-07-06T11:54:35;25.17;38.59
68865;DHT22;55898;52.196;4.420;2022-07-06T11:57:01;25.11;38.85
68865;DHT22;55898;52.196;4.420;2022-07-06T11:59:34;25.00;38.22
68865;DHT22;55898;52.196;4.420;2022-07-06T12:02:11;25.28;38.41
68865;DHT22;55898;52.196;4.420;2022-07-06T12:04:40;25.18;38.09
68865;DHT22;55898;52.196;4.420;2022-07-06T12:07:08;25.27;38.49
68865;DHT22;55898;52.196;4.420;2022-07-06T12:09:36;25.26;38.21
68865;DHT22;55898;52.196;4.420;2022-07-06T12:12:04;25.54;38.70
68865;DHT22;55898;52.196;4.420;2022-07-06T12:14:32;25.64;38.18
68865;DHT22;55898;52.196;4.420;2022-07-06T12:17:09;25.42;39.18
68865;DHT22;55898;52.196;4.420;2022-07-06T12:19:36;25.28;39.19
68865;DHT22;55898;52.196;4.420;2022-07-06T12:22:02;25.24;40.59
68865;DHT22;55898;52.196;4.420;2022-07-06T12:24:30;25.06;41.33
68865;DHT22;55898;52.196;4.420;2022-07-06T12:26:57;24.87;41.31
68865;DHT22;55898;52.196;4.420;2022-07-06T12:29:25;24.59;40.34
68865;DHT22;55898;52.196;4.420;2022-07-06T12:31:53;24.59;42.50
68865;DHT22;55898;52.196;4.420;2022-07-06T12:34:25;24.77;42.50
68865;DHT22;55898;52.196;4.420;2022-07-06T12:36:58;25.17;42.49
68865;DHT22;55898;52.196;4.420;2022-07-06T12:39:27;25.39;40.76
68865;DHT22;55898;52.196;4.420;2022-07-06T12:42:00;25.41;41.43
68865;DHT22;55898;52.196;4.420;2022-07-06T12:44:26;25.69;40.57
68865;DHT22;55898;52.196;4.420;2022-07-06T12:47:02;25.54;41.92
68865;DHT22;55898;52.196;4.420;2022-07-06T12:49:29;25.11;43.85
68865;DHT22;55898;52.196;4.420;2022-07-06T12:54:48;24.60;45.92
68865;DHT22;55898;52.196;4.420;2022-07-06T12:57:19;24.51;45.79
68865;DHT22;55898;52.196;4.420;2022-07-06T12:59:55;24.42;47.25
68865;DHT22;55898;52.196;4.420;2022-07-06T13:02:26;24.33;47.16
68865;DHT22;55898;52.196;4.420;2022-07-06T13:04:56;24.28;47.36
68865;DHT22;55898;52.196;4.420;2022-07-06T13:07:23;24.11;47.79
68865;DHT22;55898;52.196;4.420;2022-07-06T13:09:48;24.00;49.83
68865;DHT22;55898;52.196;4.420;2022-07-06T13:12:14;24.05;51.76
68865;DHT22;55898;52.196;4.420;2022-07-06T13:14:45;23.97;51.67
68865;DHT22;55898;52.196;4.420;2022-07-06T13:17:11;24.04;52.69
68865;DHT22;55898;52.196;4.420;2022-07-06T13:19:37;24.10;52.00
68865;DHT22;55898;52.196;4.420;2022-07-06T13:22:02;24.42;51.02
68865;DHT22;55898;52.196;4.420;2022-07-06T13:24:28;24.68;49.22
68865;DHT22;55898;52.196;4.420;2022-07-06T13:26:55;24.79;49.28
68865;DHT22;55898;52.196;4.420;2022-07-06T13:29:20;24.58;49.79
68865;DHT22;55898;52.196;4.420;2022-07-06T13:31:46;24.22;51.22
68865;DHT22;55898;52.196;4.420;2022-07-06T13:34:11;23.87;52.52
68865;DHT22;55898;52.196;4.420;2022-07-06T13:36:38;23.96;53.88
68865;DHT22;55898;52.196;4.420;2022-07-06T13:39:04;24.15;51.88
68865;DHT22;55898;52.196;4.420;2022-07-06T13:41:30;24.33;51.78
68865;DHT22;55898;52.196;4.420;2022-07-06T13:43:56;24.39;51.67
68865;DHT22;55898;52.196;4.420;2022-07-06T13:46:22;24.41;51.72
68865;DHT22;55898;52.196;4.420;2022-07-06T13:48:47;24.17;51.54
68865;DHT22;55898;52.196;4.420;2022-07-06T13:51:13;24.04;52.11
68865;DHT22;55898;52.196;4.420;2022-07-06T13:53:39;23.80;52.74
68865;DHT22;55898;52.196;4.420;2022-07-06T13:56:05;23.87;52.60
68865;DHT22;55898;52.196;4.420;2022-07-06T13:58:31;24.65;50.81
68865;DHT22;55898;52.196;4.420;2022-07-06T14:00:57;25.04;50.07
68865;DHT22;55898;52.196;4.420;2022-07-06T14:03:23;25.17;49.09
68865;DHT22;55898;52.196;4.420;2022-07-06T14:05:58;25.47;50.29
68865;DHT22;55898;52.196;4.420;2022-07-06T14:08:25;25.23;49.12
68865;DHT22;55898;52.196;4.420;2022-07-06T14:10:51;25.18;49.21
68865;DHT22;55898;52.196;4.420;2022-07-06T14:13:17;25.17;50.11
68865;DHT22;55898;52.196;4.420;2022-07-06T14:15:43;25.04;49.55
68865;DHT22;55898;52.196;4.420;2022-07-06T14:18:08;25.14;50.85
68865;DHT22;55898;52.196;4.420;2022-07-06T14:20:34;25.34;49.98
68865;DHT22;55898;52.196;4.420;2022-07-06T14:22:59;25.17;49.95
68865;DHT22;55898;52.196;4.420;2022-07-06T14:25:25;25.14;50.37
68865;DHT22;55898;52.196;4.420;2022-07-06T14:27:50;25.02;50.48
68865;DHT22;55898;52.196;4.420;2022-07-06T14:30:16;24.72;50.86
68865;DHT22;55898;52.196;4.420;2022-07-06T14:32:41;24.47;51.68
68865;DHT22;55898;52.196;4.420;2022-07-06T14:35:10;24.35;51.03
68865;DHT22;55898;52.196;4.420;2022-07-06T14:37:36;24.33;50.62
68865;DHT22;55898;52.196;4.420;2022-07-06T14:40:02;24.45;51.65
68865;DHT22;55898;52.196;4.420;2022-07-06T14:42:28;24.63;50.73
68865;DHT22;55898;52.196;4.420;2022-07-06T14:44:54;24.69;49.78
68865;DHT22;55898;52.196;4.420;2022-07-06T14:47:20;24.70;49.63
68865;DHT22;55898;52.196;4.420;2022-07-06T14:49:45;24.65;48.51
68865;DHT22;55898;52.196;4.420;2022-07-06T14:52:11;24.48;49.54
68865;DHT22;55898;52.196;4.420;2022-07-06T14:54:36;24.41;50.21
68865;DHT22;55898;52.196;4.420;2022-07-06T14:57:02;24.52;50.17
68865;DHT22;55898;52.196;4.420;2022-07-06T14:59:32;24.51;49.45
68865;DHT22;55898;52.196;4.420;2022-07-06T15:01:58;24.53;49.07
68865;DHT22;55898;52.196;4.420;2022-07-06T15:04:23;24.47;48.70
68865;DHT22;55898;52.196;4.420;2022-07-06T15:06:49;24.38;48.50
68865;DHT22;55898;52.196;4.420;2022-07-06T15:09:15;24.45;48.62
68865;DHT22;55898;52.196;4.420;2022-07-06T15:11:41;24.43;49.28
68865;DHT22;55898;52.196;4.420;2022-07-06T15:14:06;24.41;48.76
68865;DHT22;55898;52.196;4.420;2022-07-06T15:16:32;24.32;50.02
68865;DHT22;55898;52.196;4.420;2022-07-06T15:18:57;24.21;49.50
68865;DHT22;55898;52.196;4.420;2022-07-06T15:21:23;23.97;49.72
68865;DHT22;55898;52.196;4.420;2022-07-06T15:23:49;23.93;51.08
68865;DHT22;55898;52.196;4.420;2022-07-06T15:26:14;23.84;51.17
68865;DHT22;55898;52.196;4.420;2022-07-06T15:28:40;23.80;51.79
68865;DHT22;55898;52.196;4.420;2022-07-06T15:31:05;23.62;52.16
68865;DHT22;55898;52.196;4.420;2022-07-06T15:33:31;23.49;51.78